createdAt,value
2022-11-28T00:02:28.005Z,5.98
2022-11-28T00:05:30.556Z,5.96
2022-11-28T00:08:33.831Z,5.96
2022-11-28T00:11:36.351Z,5.85
2022-11-28T00:14:39.052Z,5.84
2022-11-28T00:17:41.688Z,5.91
2022-11-28T00:20:43.944Z,5.94
2022-11-28T00:23:48.386Z,5.83
2022-11-28T00:26:50.671Z,5.91
2022-11-28T00:29:53.276Z,5.91
2022-11-28T00:32:55.475Z,5.84
2022-11-28T00:36:04.451Z,5.99
2022-11-28T00:39:06.817Z,5.74
2022-11-28T00:42:09.311Z,5.98
2022-11-28T00:45:11.726Z,5.97
2022-11-28T00:48:14.239Z,5.98
2022-11-28T00:51:19.517Z,5.98
2022-11-28T00:54:22.027Z,5.97
2022-11-28T00:57:24.304Z,5.97
2022-11-28T01:00:26.842Z,5.99
2022-11-28T01:03:29.068Z,5.87
2022-11-28T01:06:40.520Z,5.99
2022-11-28T01:09:42.865Z,5.96
2022-11-28T01:12:45.452Z,5.79
2022-11-28T01:15:48.155Z,5.96
2022-11-28T01:18:51.515Z,5.95
2022-11-28T01:21:53.901Z,5.82
2022-11-28T01:24:56.438Z,5.90
2022-11-28T01:27:58.765Z,5.95
2022-11-28T01:31:09.554Z,5.96
2022-11-28T01:34:11.845Z,5.86
2022-11-28T01:37:14.402Z,6.00
2022-11-28T01:40:17.059Z,6.02
2022-11-28T01:43:21.243Z,5.99
2022-11-28T01:46:23.568Z,5.90
2022-11-28T01:49:31.747Z,5.89
2022-11-28T01:52:36.868Z,5.86
2022-11-28T01:56:01.226Z,5.92
2022-11-28T01:59:07.647Z,6.02
2022-11-28T02:02:18.318Z,5.88
2022-11-28T02:05:22.061Z,6.01
2022-11-28T02:08:25.524Z,5.90
2022-11-28T02:11:40.171Z,5.96
2022-11-28T02:15:06.919Z,5.97
2022-11-28T02:18:39.671Z,5.98
2022-11-28T02:22:02.252Z,5.96
2022-11-28T02:25:33.615Z,5.95
2022-11-28T02:28:58.610Z,5.95
2022-11-28T02:32:33.105Z,5.92
2022-11-28T02:35:55.833Z,5.77
2022-11-28T02:39:52.200Z,5.76
2022-11-28T02:43:26.291Z,5.89
2022-11-28T02:46:37.571Z,5.86
2022-11-28T02:50:07.412Z,5.74
2022-11-28T02:53:14.620Z,5.72
2022-11-28T02:56:18.088Z,5.84
2022-11-28T02:59:38.800Z,5.70
2022-11-28T03:02:43.772Z,5.82
2022-11-28T03:06:05.528Z,5.68
2022-11-28T03:09:46.863Z,5.68
2022-11-28T03:13:21.522Z,5.79
2022-11-28T03:16:46.244Z,5.79
2022-11-28T03:19:54.691Z,5.67
2022-11-28T03:23:16.371Z,5.81
2022-11-28T03:26:46.326Z,5.81
2022-11-28T03:29:56.092Z,5.82
2022-11-28T03:33:01.606Z,5.83
2022-11-28T03:36:17.889Z,5.70
2022-11-28T03:39:24.084Z,5.81
2022-11-28T03:42:31.614Z,5.78
2022-11-28T03:45:42.791Z,5.63
2022-11-28T03:48:48.610Z,5.77
2022-11-28T03:51:57.814Z,5.79
2022-11-28T03:55:05.483Z,5.76
2022-11-28T03:58:37.463Z,5.68
2022-11-28T04:02:04.717Z,5.77
2022-11-28T04:05:32.787Z,5.76
2022-11-28T04:08:44.502Z,5.75
2022-11-28T04:11:59.226Z,5.63
2022-11-28T04:15:09.792Z,5.59
2022-11-28T04:18:29.727Z,5.58
2022-11-28T04:22:01.379Z,5.69
2022-11-28T04:25:15.375Z,5.67
2022-11-28T04:28:23.274Z,5.59
2022-11-28T04:31:26.814Z,5.68
2022-11-28T04:34:32.482Z,5.53
2022-11-28T04:37:39.123Z,5.51
2022-11-28T04:40:47.216Z,5.60
2022-11-28T04:44:01.012Z,5.54
2022-11-28T04:47:04.468Z,5.52
2022-11-28T04:50:08.176Z,5.55
2022-11-28T04:53:15.671Z,5.52
2022-11-28T04:56:44.386Z,5.54
2022-11-28T04:59:48.323Z,5.68
2022-11-28T05:02:54.048Z,5.60
2022-11-28T05:05:56.510Z,5.60
2022-11-28T05:08:59.089Z,5.48
2022-11-28T05:12:01.496Z,5.42
2022-11-28T05:15:05.170Z,5.58
2022-11-28T05:18:09.271Z,5.58
2022-11-28T05:21:12.614Z,5.43
2022-11-28T05:24:14.920Z,5.42
2022-11-28T05:27:17.468Z,5.55
2022-11-28T05:30:19.720Z,5.52
2022-11-28T05:33:22.206Z,5.35
2022-11-28T05:36:24.502Z,5.23
2022-11-28T05:39:27.084Z,5.46
2022-11-28T05:42:33.237Z,5.35
2022-11-28T05:45:40.958Z,5.35
2022-11-28T05:48:43.315Z,5.46
2022-11-28T05:51:45.816Z,5.46
2022-11-28T05:54:48.007Z,5.33
2022-11-28T05:57:50.758Z,5.50
2022-11-28T06:00:53.027Z,5.49
2022-11-28T06:04:00.871Z,5.37
2022-11-28T06:07:03.207Z,5.23
2022-11-28T06:10:07.250Z,5.48
2022-11-28T06:13:09.521Z,5.45
2022-11-28T06:16:15.219Z,5.34
2022-11-28T06:19:18.051Z,5.35
2022-11-28T06:22:20.977Z,5.46
2022-11-28T06:25:23.249Z,5.44
2022-11-28T06:28:25.773Z,5.31
2022-11-28T06:31:30.026Z,5.02
2022-11-28T06:34:32.885Z,5.33
2022-11-28T06:37:35.322Z,5.44
2022-11-28T06:40:41.188Z,5.39
2022-11-28T06:43:43.536Z,5.26
2022-11-28T06:46:46.670Z,5.32
2022-11-28T06:49:49.567Z,5.40
2022-11-28T06:52:54.003Z,5.31
2022-11-28T06:55:56.275Z,5.21
2022-11-28T06:58:59.983Z,5.41
2022-11-28T07:02:07.462Z,5.38
2022-11-28T07:05:10.439Z,5.37
2022-11-28T07:08:12.726Z,5.44
2022-11-28T07:11:23.496Z,5.34
2022-11-28T07:14:26.023Z,5.45
2022-11-28T07:17:28.746Z,5.53
2022-11-28T07:20:30.956Z,5.48
2022-11-28T07:23:33.569Z,5.49
2022-11-28T07:26:38.124Z,5.61
2022-11-28T07:29:40.999Z,5.46
2022-11-28T07:32:43.598Z,5.47
2022-11-28T07:35:46.078Z,5.62
2022-11-28T07:38:51.179Z,5.69
2022-11-28T07:41:53.810Z,5.64
2022-11-28T07:44:56.746Z,5.86
2022-11-28T07:47:59.335Z,5.81
2022-11-28T07:51:12.939Z,6.08
2022-11-28T07:54:15.518Z,6.03
2022-11-28T07:57:17.804Z,6.26
2022-11-28T08:00:21.158Z,6.28
2022-11-28T08:03:23.725Z,6.36
2022-11-28T08:06:28.639Z,6.47
2022-11-28T08:09:32.276Z,6.59
2022-11-28T08:12:34.590Z,6.67
2022-11-28T08:15:38.624Z,6.78
2022-11-28T08:18:41.047Z,6.66
2022-11-28T08:21:43.676Z,6.83
2022-11-28T08:24:45.981Z,6.82
2022-11-28T08:27:48.518Z,6.80
2022-11-28T08:30:51.232Z,6.78
2022-11-28T08:33:55.958Z,6.71
2022-11-28T08:36:58.220Z,6.57
2022-11-28T08:40:00.828Z,6.37
2022-11-28T08:43:03.187Z,6.35
2022-11-28T08:46:10.732Z,6.23
2022-11-28T08:49:13.353Z,6.30
2022-11-28T08:52:16.211Z,6.22
2022-11-28T08:55:22.219Z,6.13
2022-11-28T08:58:28.074Z,6.10
2022-11-28T09:01:30.915Z,6.03
2022-11-28T09:04:33.534Z,6.10
2022-11-28T09:07:35.852Z,5.94
2022-11-28T09:10:40.477Z,6.10
2022-11-28T09:13:43.105Z,6.12
2022-11-28T09:16:45.655Z,6.03
2022-11-28T09:19:48.169Z,6.03
2022-11-28T09:22:50.679Z,5.97
2022-11-28T09:25:53.354Z,6.04
2022-11-28T09:28:55.989Z,6.17
2022-11-28T09:31:58.246Z,6.05
2022-11-28T09:35:00.817Z,6.04
2022-11-28T09:38:03.095Z,5.99
2022-11-28T09:41:23.862Z,5.93
2022-11-28T09:44:55.420Z,5.95
2022-11-28T09:48:21.338Z,6.04
2022-11-28T09:51:33.273Z,6.12
2022-11-28T09:54:52.530Z,6.10
2022-11-28T09:57:55.401Z,5.92
2022-11-28T10:01:32.609Z,5.84
2022-11-28T10:04:42.719Z,5.94
2022-11-28T10:07:57.228Z,5.88
2022-11-28T10:11:27.096Z,5.88
2022-11-28T10:14:57.211Z,5.81
2022-11-28T10:18:27.912Z,5.67
2022-11-28T10:21:42.263Z,5.79
2022-11-28T10:24:54.217Z,5.70
2022-11-28T10:27:57.860Z,5.67
2022-11-28T10:31:16.891Z,5.69
2022-11-28T10:34:25.099Z,5.81
2022-11-28T10:37:31.453Z,5.83
2022-11-28T10:40:59.425Z,5.93
2022-11-28T10:44:08.061Z,5.91
2022-11-28T10:47:17.516Z,5.83
2022-11-28T10:50:38.925Z,5.86
2022-11-28T10:53:46.675Z,5.82
2022-11-28T10:57:12.689Z,5.82
2022-11-28T11:00:18.306Z,5.66
2022-11-28T11:03:28.291Z,5.64
2022-11-28T11:06:41.280Z,5.72
2022-11-28T11:09:51.179Z,5.68
2022-11-28T11:12:55.011Z,5.70
2022-11-28T11:16:11.342Z,5.71
2022-11-28T11:19:25.526Z,5.67
2022-11-28T11:22:31.923Z,5.69
2022-11-28T11:25:34.611Z,5.55
2022-11-28T11:28:50.785Z,5.76
2022-11-28T11:31:54.046Z,5.67
2022-11-28T11:34:58.509Z,5.68
2022-11-28T11:38:20.310Z,5.67
2022-11-28T11:41:29.951Z,5.71
2022-11-28T11:44:34.625Z,5.74
2022-11-28T11:47:42.866Z,5.72
2022-11-28T11:50:54.178Z,5.61
2022-11-28T11:54:20.992Z,5.79
2022-11-28T11:57:36.078Z,5.73
2022-11-28T12:00:40.444Z,5.88
2022-11-28T12:03:59.005Z,5.89
2022-11-28T12:07:06.514Z,5.79
2022-11-28T12:10:15.333Z,5.96
2022-11-28T12:13:23.436Z,5.77
2022-11-28T12:16:52.323Z,5.94
2022-11-28T12:20:00.865Z,5.99
2022-11-28T12:23:17.704Z,6.00
2022-11-28T12:26:52.540Z,5.96
2022-11-28T12:30:39.105Z,5.79
2022-11-28T12:34:25.888Z,5.77
2022-11-28T12:38:09.862Z,5.90
2022-11-28T12:41:11.970Z,5.90
2022-11-28T12:44:34.366Z,5.89
2022-11-28T12:48:12.338Z,5.93
2022-11-28T12:51:35.059Z,5.96
2022-11-28T12:55:01.011Z,5.95
2022-11-28T12:58:19.989Z,5.94
2022-11-28T13:01:49.830Z,6.05
2022-11-28T13:05:10.596Z,6.07
2022-11-28T13:08:46.457Z,6.07
2022-11-28T13:12:13.916Z,6.11
2022-11-28T13:15:28.357Z,6.13
2022-11-28T13:18:54.024Z,6.11
2022-11-28T13:22:25.482Z,6.17
2022-11-28T13:25:39.571Z,6.17
2022-11-28T13:29:09.400Z,6.19
2022-11-28T13:32:28.456Z,6.20
2022-11-28T13:35:31.315Z,6.20
2022-11-28T13:39:11.270Z,6.14
2022-11-28T13:42:52.743Z,6.14
2022-11-28T13:45:44.253Z,6.13
2022-11-28T13:52:18.207Z,6.09
2022-11-28T13:55:40.961Z,6.06
2022-11-28T13:58:52.842Z,6.05
2022-11-28T14:02:01.992Z,6.04
2022-11-28T14:05:26.241Z,5.90
2022-11-28T14:08:32.893Z,6.04
2022-11-28T14:12:08.286Z,6.05
2022-11-28T14:15:25.718Z,6.01
2022-11-28T14:19:01.975Z,5.98
2022-11-28T14:22:31.935Z,5.98
2022-11-28T14:25:42.319Z,5.94
2022-11-28T14:28:45.273Z,5.90
2022-11-28T14:32:13.541Z,5.17
2022-11-28T14:35:55.641Z,5.65
2022-11-28T14:39:16.784Z,5.68
2022-11-28T14:42:58.911Z,5.64
2022-11-28T14:45:50.034Z,5.57
2022-11-28T14:48:59.028Z,5.51
2022-11-28T14:52:41.059Z,5.41
2022-11-28T14:55:43.790Z,5.31
2022-11-28T14:58:47.984Z,5.26
2022-11-28T15:02:12.088Z,5.15
2022-11-28T15:05:38.474Z,5.07
2022-11-28T15:09:01.985Z,5.01
2022-11-28T15:12:17.720Z,4.98
2022-11-28T15:15:20.687Z,4.78
2022-11-28T15:18:26.426Z,4.81
2022-11-28T15:21:28.949Z,4.80
2022-11-28T15:24:37.219Z,4.65
2022-11-28T15:27:39.512Z,4.75
2022-11-28T15:30:47.826Z,4.53
2022-11-28T15:33:51.074Z,4.63
2022-11-28T15:36:55.951Z,4.46
2022-11-28T15:39:59.942Z,4.50
2022-11-28T15:43:09.542Z,4.35
2022-11-28T15:46:23.605Z,4.37
2022-11-28T15:49:34.258Z,4.39
2022-11-28T15:52:36.522Z,4.27
2022-11-28T15:55:39.167Z,4.39
2022-11-28T15:58:43.490Z,4.25
2022-11-28T16:01:46.479Z,4.16
2022-11-28T16:05:16.063Z,4.23
2022-11-28T16:08:32.094Z,4.09
2022-11-28T16:11:35.912Z,4.21
2022-11-28T16:14:44.692Z,4.05
2022-11-28T16:17:47.552Z,4.21
2022-11-28T16:20:49.804Z,4.01
2022-11-28T16:23:52.335Z,4.09
2022-11-28T16:27:00.052Z,4.20
2022-11-28T16:30:41.432Z,4.18
2022-11-28T16:33:44.979Z,4.21
2022-11-28T16:36:48.924Z,4.25
2022-11-28T16:40:14.647Z,4.24
2022-11-28T16:43:39.233Z,4.20
2022-11-28T16:46:54.054Z,4.13
2022-11-28T16:50:18.278Z,4.07
2022-11-28T16:53:47.832Z,4.14
2022-11-28T16:56:50.396Z,4.09
2022-11-28T16:59:53.000Z,4.05
2022-11-28T17:02:55.543Z,3.85
2022-11-28T17:05:57.823Z,3.83
2022-11-28T17:09:06.886Z,3.91
2022-11-28T17:12:24.522Z,3.74
2022-11-28T17:15:27.027Z,3.81
2022-11-28T17:18:29.334Z,3.64
2022-11-28T17:21:40.861Z,3.60
2022-11-28T17:24:43.637Z,3.55
2022-11-28T17:27:48.100Z,3.69
2022-11-28T17:30:50.529Z,3.63
2022-11-28T17:33:53.118Z,3.56
2022-11-28T17:36:55.408Z,3.53
2022-11-28T17:40:16.603Z,3.47
2022-11-28T17:43:21.567Z,3.47
2022-11-28T17:46:24.053Z,3.45
2022-11-28T17:49:27.658Z,3.36
2022-11-28T17:52:32.604Z,3.25
2022-11-28T17:55:34.996Z,3.36
2022-11-28T17:58:37.778Z,3.36
2022-11-28T18:01:41.497Z,3.10
2022-11-28T18:04:44.159Z,3.25
2022-11-28T18:07:47.710Z,3.08
2022-11-28T18:10:50.450Z,3.16
2022-11-28T18:13:53.514Z,2.94
2022-11-28T18:16:56.862Z,3.08
2022-11-28T18:19:59.300Z,3.04
2022-11-28T18:23:02.850Z,2.99
2022-11-28T18:26:09.917Z,2.96
2022-11-28T18:29:12.923Z,2.96
2022-11-28T18:32:15.274Z,2.82
2022-11-28T18:35:19.547Z,2.75
2022-11-28T18:38:23.495Z,2.86
2022-11-28T18:41:27.442Z,2.76
2022-11-28T18:44:29.775Z,2.75
2022-11-28T18:47:34.375Z,2.82
2022-11-28T18:50:37.043Z,2.68
2022-11-28T18:53:40.219Z,2.76
2022-11-28T18:56:42.604Z,2.61
2022-11-28T18:59:52.759Z,2.69
2022-11-28T19:02:56.736Z,2.79
2022-11-28T19:05:59.539Z,2.73
2022-11-28T19:09:04.439Z,2.68
2022-11-28T19:12:08.152Z,2.70
2022-11-28T19:15:11.743Z,2.62
2022-11-28T19:18:14.330Z,2.55
2022-11-28T19:21:19.793Z,2.67
2022-11-28T19:24:22.505Z,2.64
2022-11-28T19:27:25.902Z,2.53
2022-11-28T19:30:28.750Z,2.51
2022-11-28T19:33:31.354Z,2.66
2022-11-28T19:36:37.300Z,2.55
2022-11-28T19:39:39.644Z,2.65
2022-11-28T19:42:42.641Z,2.61
2022-11-28T19:45:54.324Z,2.54
2022-11-28T19:48:57.230Z,2.49
2022-11-28T19:51:59.494Z,2.65
2022-11-28T19:55:02.510Z,2.39
2022-11-28T19:58:04.763Z,2.69
2022-11-28T20:01:19.480Z,2.58
2022-11-28T20:04:25.215Z,2.72
2022-11-28T20:07:28.098Z,2.75
2022-11-28T20:10:30.943Z,2.75
2022-11-28T20:13:33.825Z,2.71
2022-11-28T20:16:37.762Z,2.71
2022-11-28T20:19:40.086Z,2.64
2022-11-28T20:22:42.758Z,2.66
2022-11-28T20:25:45.028Z,2.55
2022-11-28T20:28:48.255Z,2.66
2022-11-28T20:31:50.570Z,2.60
2022-11-28T20:34:53.268Z,2.44
2022-11-28T20:37:55.970Z,2.60
2022-11-28T20:41:06.976Z,2.55
2022-11-28T20:44:10.201Z,2.60
2022-11-28T20:47:12.752Z,2.55
2022-11-28T20:50:15.046Z,2.58
2022-11-28T20:53:19.898Z,2.45
2022-11-28T20:56:51.607Z,2.58
2022-11-28T20:59:57.462Z,2.66
2022-11-28T21:02:59.722Z,2.67
2022-11-28T21:06:02.702Z,2.57
2022-11-28T21:09:07.622Z,2.73
2022-11-28T21:12:10.155Z,2.74
2022-11-28T21:15:12.427Z,2.63
2022-11-28T21:18:16.469Z,2.82
2022-11-28T21:21:27.878Z,2.86
2022-11-28T21:24:30.470Z,2.92
2022-11-28T21:27:35.331Z,2.94
2022-11-28T21:30:46.793Z,2.88
2022-11-28T21:33:50.712Z,3.05
2022-11-28T21:36:53.986Z,3.07
2022-11-28T21:39:56.228Z,2.99
2022-11-28T21:42:58.864Z,3.01
2022-11-28T21:46:03.315Z,3.04
2022-11-28T21:49:06.127Z,3.05
2022-11-28T21:52:11.517Z,3.08
2022-11-28T21:55:14.222Z,3.07
2022-11-28T21:58:18.023Z,3.15
2022-11-28T22:01:22.815Z,3.24
2022-11-28T22:04:25.424Z,3.12
2022-11-28T22:07:27.783Z,3.28
2022-11-28T22:10:32.151Z,3.33
2022-11-28T22:13:35.656Z,3.39
2022-11-28T22:16:38.324Z,3.43
2022-11-28T22:19:41.434Z,3.23
2022-11-28T22:22:44.119Z,3.49
2022-11-28T22:25:52.709Z,3.52
2022-11-28T22:28:55.445Z,3.44
2022-11-28T22:31:58.205Z,3.57
2022-11-28T22:35:02.659Z,3.49
2022-11-28T22:38:05.095Z,3.43
2022-11-28T22:41:16.252Z,3.52
2022-11-28T22:44:18.936Z,3.44
2022-11-28T22:47:21.733Z,3.57
2022-11-28T22:50:24.034Z,3.45
2022-11-28T22:53:26.770Z,3.47
2022-11-28T22:56:31.294Z,3.53
2022-11-28T22:59:36.714Z,3.55
2022-11-28T23:02:39.060Z,3.57
2022-11-28T23:05:46.530Z,3.49
2022-11-28T23:08:52.414Z,3.58
2022-11-28T23:11:55.067Z,3.58
2022-11-28T23:14:57.835Z,3.56
2022-11-28T23:18:00.605Z,3.40
2022-11-28T23:21:02.870Z,3.52
2022-11-28T23:24:06.999Z,3.34
2022-11-28T23:27:09.374Z,3.23
2022-11-28T23:30:14.353Z,3.34
2022-11-28T23:33:17.112Z,3.28
2022-11-28T23:36:22.728Z,3.26
2022-11-28T23:39:25.126Z,3.14
2022-11-28T23:42:37.170Z,3.12
2022-11-28T23:45:39.533Z,3.23
2022-11-28T23:48:45.430Z,3.13
2022-11-28T23:51:47.765Z,3.24
2022-11-28T23:54:50.226Z,3.11
2022-11-28T23:57:53.855Z,3.06
